Time;durP1;ratioP1;P1;durP2;ratioP2;P2;SDS_P1;SDS_P2;PMS_P1;PMS_P2;Temp;Humidity;BMP_temperature;BMP_pressure;BME280_temperature;BME280_humidity;BME280_pressure;Samples;Min_cycle;Max_cycle;Signal;HPM_P1;HPM_P2
2022/01/28 00:00:05;;;;;;;7.80;3.90;;;;;;;1.24;91.85;96172.47;107536;1270;29785;-76
2022/01/28 00:03:01;;;;;;;8.90;4.60;;;;;;;1.27;91.81;96163.10;107502;1270;32529;-76
2022/01/28 00:05:32;;;;;;;5.20;2.50;;;;;;;1.27;91.69;96162.82;107465;1270;32860;-75
2022/01/28 00:08:04;;;;;;;6.70;4.00;;;;;;;1.29;91.55;96156.31;107440;1270;31978;-75
2022/01/28 00:10:39;;;;;;;6.50;3.00;;;;;;;1.33;91.22;96158.89;107429;1270;33031;-75
2022/01/28 00:13:20;;;;;;;6.00;3.80;;;;;;;1.33;91.15;96158.20;107165;1270;45119;-76
2022/01/28 00:16:27;;;;;;;4.30;3.00;;;;;;;1.31;90.90;96161.45;107453;1268;30514;-76
2022/01/28 00:19:33;;;;;;;6.40;3.10;;;;;;;1.27;91.02;96163.86;107503;1270;34530;-76
2022/01/28 00:38:54;;;;;;;4.90;3.50;;;;;;;1.23;91.03;96173.50;107437;1270;42208;-76
2022/01/28 00:41:25;;;;;;;3.90;2.60;;;;;;;1.19;91.15;96176.62;107458;1270;42766;-77
2022/01/28 00:43:56;;;;;;;6.90;3.40;;;;;;;1.15;91.37;96184.36;107543;1270;40669;-76
2022/01/28 00:46:32;;;;;;;6.20;2.90;;;;;;;1.10;91.86;96191.35;107474;1270;43528;-76
2022/01/28 00:49:03;;;;;;;6.30;3.50;;;;;;;1.06;92.08;96179.59;107389;1270;33631;-76
2022/01/28 00:51:33;;;;;;;3.30;2.40;;;;;;;1.05;92.07;96188.27;107478;1270;46166;-77
2022/01/28 00:54:04;;;;;;;6.60;3.50;;;;;;;1.06;92.32;96180.88;107453;1270;43660;-76
2022/01/28 00:56:35;;;;;;;4.00;2.70;;;;;;;1.05;92.40;96183.10;107492;1270;42644;-76
2022/01/28 00:59:06;;;;;;;5.40;3.20;;;;;;;1.08;92.53;96185.05;107518;1270;40679;-76
2022/01/28 01:01:37;;;;;;;5.10;3.40;;;;;;;1.11;92.46;96180.34;107579;1270;43785;-76
2022/01/28 01:04:08;;;;;;;4.30;2.50;;;;;;;1.13;92.30;96178.41;107469;1270;40221;-76
2022/01/28 01:06:39;;;;;;;4.40;2.90;;;;;;;1.17;92.22;96169.88;107527;1270;33722;-77
2022/01/28 01:09:10;;;;;;;4.30;2.80;;;;;;;1.17;92.11;96177.36;107503;1269;40423;-76
2022/01/28 01:11:42;;;;;;;4.50;2.50;;;;;;;1.17;92.01;96180.48;107562;1270;42770;-77
2022/01/28 01:14:15;;;;;;;6.00;3.40;;;;;;;1.19;91.91;96163.65;107493;1270;41835;-77
2022/01/28 01:17:01;;;;;;;5.40;3.30;;;;;;;1.27;91.55;96152.73;107455;1270;41017;-77
2022/01/28 01:19:37;;;;;;;2.90;2.00;;;;;;;1.28;91.47;96157.58;107481;1268;36992;-76
2022/01/28 01:22:12;;;;;;;3.60;2.40;;;;;;;1.25;91.55;96161.48;107540;1270;42522;-76
2022/01/28 01:24:50;;;;;;;5.60;3.00;;;;;;;1.24;91.33;96162.45;107493;1270;44454;-78
2022/01/28 01:27:21;;;;;;;4.80;3.40;;;;;;;1.24;91.46;96155.19;107476;1270;44135;-77
2022/01/28 01:29:52;;;;;;;5.30;3.20;;;;;;;1.27;91.36;96146.35;107552;1268;29267;-77
2022/01/28 01:32:23;;;;;;;4.80;2.50;;;;;;;1.28;91.40;96143.21;107409;1270;45754;-77
2022/01/28 01:34:53;;;;;;;5.20;3.00;;;;;;;1.29;91.16;96148.68;107552;1270;42873;-78
2022/01/28 01:37:24;;;;;;;4.60;3.20;;;;;;;1.33;90.90;96139.04;107547;1270;36399;-77
2022/01/28 01:39:56;;;;;;;6.10;3.10;;;;;;;1.35;90.82;96140.27;107584;1270;33014;-77
2022/01/28 01:42:35;;;;;;;3.40;2.10;;;;;;;1.36;90.75;96135.28;107502;1270;33860;-77
2022/01/28 01:53:41;;;;;;;4.60;3.00;;;;;;;1.40;90.29;96107.63;107498;1270;44016;-76
2022/01/28 01:56:13;;;;;;;5.10;2.60;;;;;;;1.42;90.25;96111.02;107451;1270;43520;-76
2022/01/28 01:58:44;;;;;;;3.20;2.30;;;;;;;1.41;90.40;96107.66;107396;1270;43823;-77
2022/01/28 02:01:15;;;;;;;5.80;2.80;;;;;;;1.39;90.28;96109.38;107458;1270;38037;-77
2022/01/28 02:03:47;;;;;;;3.20;2.00;;;;;;;1.38;90.49;96114.42;107503;1270;29776;-77
2022/01/28 02:06:21;;;;;;;3.00;2.00;;;;;;;1.41;90.40;96121.54;107389;1271;45309;-76
2022/01/28 02:08:52;;;;;;;3.60;2.40;;;;;;;1.44;90.34;96129.02;107451;1269;46041;-77
2022/01/28 02:11:23;;;;;;;2.40;2.10;;;;;;;1.44;90.24;96142.80;107396;1270;50131;-77
2022/01/28 02:13:55;;;;;;;4.50;3.00;;;;;;;1.39;90.24;96146.05;107541;1270;43184;-77
2022/01/28 02:16:25;;;;;;;4.50;2.50;;;;;;;1.35;90.42;96140.37;107608;1270;34780;-77
2022/01/28 02:18:57;;;;;;;3.50;1.60;;;;;;;1.32;90.77;96143.92;107474;1270;42966;-77
2022/01/28 02:21:28;;;;;;;3.90;2.50;;;;;;;1.32;90.81;96141.95;107594;1270;44758;-77
2022/01/28 02:24:02;;;;;;;3.50;1.70;;;;;;;1.31;90.97;96137.08;107491;1269;41131;-76
2022/01/28 02:26:35;;;;;;;3.80;2.10;;;;;;;1.26;91.17;96136.37;107618;1270;30443;-77
2022/01/28 02:29:11;;;;;;;2.60;2.00;;;;;;;1.20;91.50;96135.23;107544;1269;36550;-77
2022/01/28 02:31:43;;;;;;;6.90;2.00;;;;;;;1.18;91.67;96128.67;107563;1268;41487;-77
2022/01/28 02:34:14;;;;;;;3.40;2.00;;;;;;;1.22;91.53;96120.79;107374;1270;42678;-78
2022/01/28 02:36:45;;;;;;;3.40;1.70;;;;;;;1.26;91.47;96110.25;107523;1268;28872;-78
2022/01/28 02:39:16;;;;;;;2.20;1.80;;;;;;;1.28;91.09;96092.04;107507;1268;40485;-77
2022/01/28 02:41:51;;;;;;;2.20;1.50;;;;;;;1.24;90.89;96088.29;107543;1270;36585;-78
2022/01/28 02:44:35;;;;;;;2.90;1.80;;;;;;;1.21;91.07;96087.98;107503;1270;44082;-78
2022/01/28 02:47:12;;;;;;;4.40;2.30;;;;;;;1.22;90.67;96097.91;107465;1269;41741;-77
2022/01/28 02:49:44;;;;;;;3.40;2.10;;;;;;;1.22;90.67;96099.85;107511;1270;35929;-77
2022/01/28 02:52:24;;;;;;;2.60;1.60;;;;;;;1.22;90.41;96103.91;107545;1270;41003;-77
2022/01/28 02:54:55;;;;;;;3.60;1.90;;;;;;;1.24;90.02;96102.13;107587;1269;43210;-77
2022/01/28 02:57:27;;;;;;;2.80;1.80;;;;;;;1.28;89.46;96096.11;107554;1270;46609;-78
2022/01/28 02:59:58;;;;;;;4.30;2.30;;;;;;;1.33;88.92;96087.90;107613;1270;33888;-78
2022/01/28 03:02:29;;;;;;;5.50;2.10;;;;;;;1.37;88.12;96096.23;107566;1270;43316;-78
2022/01/28 03:05:20;;;;;;;2.30;1.50;;;;;;;1.34;88.16;96094.66;107520;1269;33826;-76
2022/01/28 03:07:51;;;;;;;2.20;1.30;;;;;;;1.36;86.95;96104.27;107495;1268;40413;-77
2022/01/28 03:10:30;;;;;;;3.20;1.40;;;;;;;1.47;86.06;96107.86;107573;1268;37301;-78
2022/01/28 03:13:15;;;;;;;2.40;1.40;;;;;;;1.49;85.64;96112.20;107541;1270;66706;-77
2022/01/28 03:15:52;;;;;;;3.10;1.30;;;;;;;1.49;85.31;96119.66;107551;1270;43067;-77
2022/01/28 03:18:29;;;;;;;2.30;1.50;;;;;;;1.52;85.06;96112.33;107527;1270;31483;-77
2022/01/28 03:21:17;;;;;;;2.50;1.60;;;;;;;1.56;84.74;96118.34;107498;1270;43239;-77
2022/01/28 03:23:48;;;;;;;1.50;1.10;;;;;;;1.57;84.05;96114.44;107411;1270;53566;-77
2022/01/28 03:26:20;;;;;;;2.20;1.40;;;;;;;1.58;83.87;96109.16;107428;1270;37208;-77
2022/01/28 03:28:50;;;;;;;3.20;1.60;;;;;;;1.58;83.53;96110.85;107394;1270;57326;-78
2022/01/28 03:31:21;;;;;;;2.00;0.90;;;;;;;1.59;83.44;96109.50;107440;1270;42684;-78
2022/01/28 03:33:52;;;;;;;1.10;0.90;;;;;;;1.59;83.18;96109.75;107417;1270;37572;-78
2022/01/28 03:36:23;;;;;;;2.80;1.50;;;;;;;1.57;83.46;96105.29;107397;1270;64712;-77
2022/01/28 03:38:54;;;;;;;2.40;0.90;;;;;;;1.56;83.35;96122.51;107373;1270;48512;-77
2022/01/28 03:41:25;;;;;;;3.20;1.70;;;;;;;1.55;83.45;96127.38;107541;1269;41615;-77
2022/01/28 03:43:58;;;;;;;2.60;1.80;;;;;;;1.55;83.21;96124.84;107499;1270;31990;-78
2022/01/28 03:46:30;;;;;;;2.40;1.40;;;;;;;1.57;83.26;96115.95;107484;1270;51736;-76
2022/01/28 03:49:02;;;;;;;1.40;1.00;;;;;;;1.56;83.05;96129.26;107412;1270;45470;-77
2022/01/28 03:51:33;;;;;;;1.20;0.90;;;;;;;1.57;82.69;96132.41;107476;1270;42853;-77
2022/01/28 03:54:04;;;;;;;1.40;0.90;;;;;;;1.57;82.26;96128.91;107446;1270;42228;-78
2022/01/28 03:56:35;;;;;;;1.20;0.70;;;;;;;1.58;82.01;96124.53;107374;1268;56287;-77
2022/01/28 03:59:05;;;;;;;2.40;1.20;;;;;;;1.59;80.61;96123.92;107491;1270;29822;-77
2022/01/28 04:01:38;;;;;;;2.10;1.10;;;;;;;1.62;80.10;96128.16;107508;1270;35059;-77
2022/01/28 04:05:02;;;;;;;1.50;0.80;;;;;;;1.60;80.06;96111.41;107505;1270;39015;-77
2022/01/28 04:12:55;;;;;;;2.40;1.00;;;;;;;1.60;79.38;96116.10;107511;1270;40285;-78
2022/01/28 04:15:37;;;;;;;1.10;0.80;;;;;;;1.63;78.82;96126.09;107545;1269;48313;-78
2022/01/28 04:18:08;;;;;;;1.60;0.70;;;;;;;1.66;78.69;96142.02;107493;1270;40815;-77
2022/01/28 04:20:39;;;;;;;1.60;1.00;;;;;;;1.65;78.69;96132.34;107382;1271;38088;-78
2022/01/28 04:23:12;;;;;;;0.50;0.40;;;;;;;1.64;78.50;96137.03;107472;1270;45674;-78
2022/01/28 04:25:44;;;;;;;0.70;0.70;;;;;;;1.64;78.76;96142.82;107521;1270;42035;-78
2022/01/28 04:28:15;;;;;;;3.00;1.00;;;;;;;1.59;79.20;96131.40;107487;1270;34253;-79
2022/01/28 04:30:48;;;;;;;2.10;0.80;;;;;;;1.57;78.87;96125.14;107550;1270;46183;-78
2022/01/28 04:33:22;;;;;;;1.10;0.70;;;;;;;1.55;79.06;96124.45;107473;1270;51747;-78
2022/01/28 04:35:54;;;;;;;1.20;0.90;;;;;;;1.51;79.32;96128.50;107376;1270;51439;-78
2022/01/28 04:38:32;;;;;;;2.80;0.90;;;;;;;1.48;79.51;96124.50;107604;1270;38743;-78
2022/01/28 04:41:12;;;;;;;;;;;;;;;1.48;79.42;96125.19;107497;1270;37914;-78
2022/01/28 04:43:47;;;;;;;1.90;1.00;;;;;;;1.52;78.84;96127.33;107565;1270;33287;-79
2022/01/28 04:46:29;;;;;;;2.00;0.90;;;;;;;1.52;78.72;96123.73;107389;1270;40236;-78
2022/01/28 04:49:06;;;;;;;2.90;0.90;;;;;;;1.52;78.47;96122.67;107536;1270;45538;-77
2022/01/28 04:51:53;;;;;;;1.40;0.40;;;;;;;1.51;78.32;96118.06;107479;1270;43480;-78
2022/01/28 04:54:45;;;;;;;0.70;0.70;;;;;;;1.53;77.82;96116.16;107564;1270;31162;-78
2022/01/28 04:57:26;;;;;;;3.20;0.80;;;;;;;1.54;77.87;96114.61;107555;1270;30350;-78
2022/01/28 05:00:07;;;;;;;3.80;1.30;;;;;;;1.52;77.77;96108.48;107573;1270;44316;-78
2022/01/28 05:03:01;;;;;;;3.20;0.60;;;;;;;1.48;78.08;96103.97;107531;1270;43882;-78
2022/01/28 05:08:45;;;;;;;2.40;1.10;;;;;;;1.38;78.71;96095.15;107518;1270;56126;-77
2022/01/28 05:11:40;;;;;;;3.00;0.90;;;;;;;1.37;78.44;96096.64;107483;1270;39416;-78
2022/01/28 05:17:19;;;;;;;2.40;1.20;;;;;;;1.41;78.24;96119.56;107632;1270;38653;-79
2022/01/28 05:28:16;;;;;;;4.60;1.10;;;;;;;1.29;80.41;96136.61;107520;1270;32513;-78
2022/01/28 05:30:47;;;;;;;0.80;0.70;;;;;;;1.23;80.90;96128.79;107520;1270;43614;-78
2022/01/28 05:33:18;;;;;;;5.90;1.20;;;;;;;1.15;81.30;96135.86;107538;1270;33552;-77
2022/01/28 05:35:51;;;;;;;1.20;1.00;;;;;;;1.06;82.09;96147.30;107524;1270;43017;-77
2022/01/28 05:38:22;;;;;;;2.20;1.00;;;;;;;0.97;83.24;96132.82;107421;1270;33839;-79
2022/01/28 05:40:53;;;;;;;0.40;0.40;;;;;;;0.86;84.13;96143.12;107423;1270;41845;-77
2022/01/28 05:43:25;;;;;;;0.80;0.60;;;;;;;0.79;84.66;96136.38;107618;1270;39944;-77
2022/01/28 05:45:56;;;;;;;3.10;0.80;;;;;;;0.73;85.13;96133.86;107597;1270;31912;-78
2022/01/28 05:48:27;;;;;;;3.80;1.00;;;;;;;0.69;87.13;96116.70;107614;1270;40051;-78
2022/01/28 05:50:58;;;;;;;1.60;1.00;;;;;;;0.67;88.21;96135.06;107610;1270;29544;-78
2022/01/28 05:53:29;;;;;;;3.80;1.10;;;;;;;0.65;88.73;96141.86;107654;1270;32389;-78
2022/01/28 05:56:00;;;;;;;3.30;0.90;;;;;;;0.57;88.82;96141.82;107472;1270;41682;-77
2022/01/28 05:58:31;;;;;;;1.30;0.70;;;;;;;0.54;89.78;96162.95;107401;1270;39796;-78
2022/01/28 06:01:02;;;;;;;3.30;1.20;;;;;;;0.50;89.95;96167.16;107525;1270;39757;-77
2022/01/28 06:03:33;;;;;;;1.60;1.00;;;;;;;0.49;89.90;96159.04;107524;1270;40828;-77
2022/01/28 06:06:04;;;;;;;4.00;1.60;;;;;;;0.46;90.04;96163.79;107515;1270;44405;-78
2022/01/28 06:08:37;;;;;;;3.80;1.10;;;;;;;0.45;90.07;96175.90;107409;1270;44039;-77
2022/01/28 06:11:08;;;;;;;2.30;1.10;;;;;;;0.43;90.19;96169.37;107416;1270;39324;-77
2022/01/28 06:13:40;;;;;;;2.10;1.10;;;;;;;0.44;90.40;96171.04;107426;1267;41572;-78
2022/01/28 06:16:11;;;;;;;3.20;1.20;;;;;;;0.44;90.81;96177.02;107472;1268;40801;-78
2022/01/28 06:18:42;;;;;;;2.40;1.30;;;;;;;0.42;91.00;96188.23;107552;1269;34449;-78
2022/01/28 06:21:13;;;;;;;1.80;1.00;;;;;;;0.40;91.16;96192.23;107521;1268;39239;-78
2022/01/28 06:23:44;;;;;;;2.40;1.40;;;;;;;0.37;91.87;96192.64;107523;1268;30099;-78
2022/01/28 06:26:16;;;;;;;1.90;1.20;;;;;;;0.34;92.35;96196.95;107496;1270;39880;-77
2022/01/28 06:28:47;;;;;;;1.60;0.90;;;;;;;0.33;92.77;96197.88;107391;1270;32937;-78
2022/01/28 06:31:18;;;;;;;0.90;0.70;;;;;;;0.35;92.75;96206.09;107477;1270;42312;-77
2022/01/28 06:33:50;;;;;;;8.30;0.90;;;;;;;0.34;92.96;96205.97;107372;1271;31611;-78
2022/01/28 06:36:21;;;;;;;1.60;0.80;;;;;;;0.35;92.86;96214.55;107438;1268;42125;-78
2022/01/28 06:38:52;;;;;;;0.90;0.70;;;;;;;0.40;92.57;96209.13;107545;1269;48367;-78
2022/01/28 06:41:24;;;;;;;1.20;0.60;;;;;;;0.42;92.77;96215.95;107490;1270;30863;-78
2022/01/28 06:43:57;;;;;;;2.00;0.90;;;;;;;0.41;92.33;96213.72;107540;1269;42654;-78
2022/01/28 06:46:28;;;;;;;1.00;0.70;;;;;;;0.41;92.12;96211.66;107638;1270;34846;-79
2022/01/28 06:48:59;;;;;;;0.90;0.70;;;;;;;0.42;92.36;96214.30;107618;1269;53849;-78
2022/01/28 06:51:32;;;;;;;2.20;0.70;;;;;;;0.44;92.52;96207.84;107504;1270;31452;-77
2022/01/28 06:54:03;;;;;;;1.80;0.90;;;;;;;0.45;92.68;96224.30;107448;1270;40170;-78
2022/01/28 06:56:34;;;;;;;1.90;0.90;;;;;;;0.46;92.88;96225.38;107406;1270;42676;-78
2022/01/28 06:59:05;;;;;;;2.50;0.80;;;;;;;0.49;92.71;96224.33;107441;1270;45904;-80
2022/01/28 07:01:36;;;;;;;1.10;0.60;;;;;;;0.51;93.01;96228.33;106007;1270;1944053;-77
2022/01/28 07:04:07;;;;;;;1.20;0.60;;;;;;;0.50;92.84;96231.77;107349;1270;35244;-78
2022/01/28 07:06:38;;;;;;;0.70;0.40;;;;;;;0.50;92.65;96241.56;107440;1270;36485;-78
2022/01/28 07:09:10;;;;;;;0.70;0.40;;;;;;;0.47;92.99;96247.71;107241;1270;46788;-78
2022/01/28 07:11:43;;;;;;;1.40;0.50;;;;;;;0.47;92.81;96235.66;107322;1270;39634;-79
2022/01/28 07:14:15;;;;;;;1.50;0.80;;;;;;;0.51;93.06;96227.86;107341;1270;31835;-77
2022/01/28 07:16:46;;;;;;;1.90;0.90;;;;;;;0.51;93.06;96246.66;107399;1270;35535;-77
2022/01/28 07:19:19;;;;;;;1.30;0.40;;;;;;;0.51;93.10;96244.22;107392;1270;41478;-77
2022/01/28 07:21:50;;;;;;;1.70;0.70;;;;;;;0.50;93.43;96248.20;107436;1270;47948;-78
2022/01/28 07:24:22;;;;;;;0.80;0.50;;;;;;;0.47;93.05;96245.89;107460;1268;38445;-78
2022/01/28 07:26:53;;;;;;;1.60;0.60;;;;;;;0.50;93.50;96264.02;107386;1270;31360;-78
2022/01/28 07:29:28;;;;;;;2.80;0.90;;;;;;;0.49;93.33;96260.23;107342;1270;52479;-78
2022/01/28 07:32:01;;;;;;;1.30;0.70;;;;;;;0.49;93.28;96266.28;107596;1270;32234;-78
2022/01/28 07:34:35;;;;;;;1.50;1.10;;;;;;;0.51;93.36;96276.55;107435;1270;39949;-77
2022/01/28 07:37:06;;;;;;;2.10;1.00;;;;;;;0.52;93.37;96275.73;107372;1270;37938;-76
2022/01/28 07:39:39;;;;;;;3.80;1.20;;;;;;;0.54;93.12;96271.18;107457;1268;37620;-75
2022/01/28 07:42:10;;;;;;;1.30;0.80;;;;;;;0.58;92.76;96272.39;107395;1270;47778;-76
2022/01/28 07:44:41;;;;;;;2.80;1.10;;;;;;;0.64;92.46;96282.55;107367;1270;44148;-77
2022/01/28 07:47:14;;;;;;;3.80;1.00;;;;;;;0.69;92.07;96286.57;107475;1270;36108;-77
2022/01/28 07:49:46;;;;;;;2.60;1.30;;;;;;;0.74;91.49;96280.50;107461;1270;33648;-78
2022/01/28 07:52:17;;;;;;;4.30;1.70;;;;;;;0.82;90.85;96284.81;107323;1270;32779;-76
2022/01/28 07:54:50;;;;;;;3.50;1.60;;;;;;;0.89;89.85;96283.43;107307;1270;38054;-75
2022/01/28 07:57:20;;;;;;;5.70;1.80;;;;;;;0.94;89.17;96286.56;107432;1268;60829;-76
2022/01/28 07:59:52;;;;;;;7.50;1.70;;;;;;;0.97;88.99;96291.95;107439;1270;39358;-76
2022/01/28 08:02:23;;;;;;;4.10;2.00;;;;;;;0.98;88.73;96291.83;107480;1270;37307;-76
2022/01/28 08:04:54;;;;;;;2.20;1.10;;;;;;;1.01;88.13;96290.23;107491;1270;30196;-77
2022/01/28 08:07:25;;;;;;;4.50;1.20;;;;;;;1.05;87.52;96287.40;107394;1270;48647;-78
2022/01/28 08:09:56;;;;;;;4.00;1.50;;;;;;;1.05;87.19;96295.23;107505;1270;45421;-77
2022/01/28 08:12:27;;;;;;;2.60;0.90;;;;;;;1.07;86.94;96308.11;107517;1270;29635;-77
2022/01/28 08:14:58;;;;;;;5.40;1.60;;;;;;;1.08;86.87;96300.73;107308;1270;40473;-78
2022/01/28 08:17:29;;;;;;;4.10;1.40;;;;;;;1.12;86.47;96294.10;107378;1270;34564;-76
2022/01/28 08:20:00;;;;;;;4.70;1.10;;;;;;;1.13;86.11;96299.11;107364;1270;38840;-75
2022/01/28 08:22:31;;;;;;;2.50;1.30;;;;;;;1.14;86.08;96302.88;107436;1270;33719;-75
2022/01/28 08:25:02;;;;;;;3.90;1.80;;;;;;;1.15;85.78;96314.38;107462;1270;40932;-75
2022/01/28 08:27:33;;;;;;;5.90;1.60;;;;;;;1.15;85.51;96307.91;107401;1271;39009;-75
2022/01/28 08:30:05;;;;;;;7.40;1.70;;;;;;;1.18;85.43;96307.25;107485;1270;38927;-76
2022/01/28 08:32:36;;;;;;;3.70;1.50;;;;;;;1.19;85.26;96315.20;107448;1270;44860;-76
2022/01/28 08:35:10;;;;;;;4.90;1.90;;;;;;;1.18;85.59;96311.31;107424;1270;48440;-76
2022/01/28 08:37:44;;;;;;;7.40;2.90;;;;;;;1.16;85.40;96316.08;107397;1270;31602;-74
2022/01/28 08:40:16;;;;;;;10.30;4.20;;;;;;;1.13;85.24;96328.63;107403;1270;32914;-77
2022/01/28 08:42:48;;;;;;;5.10;1.50;;;;;;;1.10;85.55;96330.54;107356;1270;42952;-77
2022/01/28 08:45:19;;;;;;;6.80;2.20;;;;;;;1.07;85.89;96328.33;107338;1270;43221;-77
2022/01/28 08:47:50;;;;;;;3.90;1.80;;;;;;;1.04;85.78;96317.56;107373;1270;38015;-76
2022/01/28 08:50:21;;;;;;;3.50;1.60;;;;;;;1.02;86.27;96333.02;107357;1270;37902;-77
2022/01/28 08:52:52;;;;;;;5.50;2.20;;;;;;;1.02;86.15;96328.89;107490;1270;37604;-76
2022/01/28 08:55:24;;;;;;;5.90;2.30;;;;;;;1.02;85.85;96322.46;107406;1270;45826;-78
2022/01/28 08:57:57;;;;;;;3.20;1.70;;;;;;;0.99;86.03;96323.08;107437;1270;35147;-78
2022/01/28 09:00:28;;;;;;;4.60;1.40;;;;;;;0.95;86.54;96324.20;107335;1271;42789;-77
2022/01/28 09:03:01;;;;;;;5.80;1.90;;;;;;;0.88;87.13;96333.83;107504;1269;35708;-76
2022/01/28 09:05:33;;;;;;;5.80;1.90;;;;;;;0.84;87.73;96330.91;107384;1270;38080;-73
2022/01/28 09:08:08;;;;;;;4.00;1.30;;;;;;;0.83;87.68;96338.98;107402;1270;40079;-74
2022/01/28 09:10:44;;;;;;;3.70;1.80;;;;;;;0.83;87.78;96324.29;107399;1270;40123;-74
2022/01/28 09:13:24;;;;;;;3.80;1.60;;;;;;;0.84;88.23;96335.89;107487;1269;37780;-74
2022/01/28 09:15:57;;;;;;;7.50;1.90;;;;;;;0.84;88.55;96341.02;107479;1270;33967;-74
2022/01/28 09:18:30;;;;;;;5.30;1.80;;;;;;;0.82;88.66;96332.57;107509;1270;37446;-73
2022/01/28 09:21:01;;;;;;;7.30;2.10;;;;;;;0.83;88.65;96340.55;107429;1270;44319;-73
2022/01/28 09:23:32;;;;;;;3.20;1.70;;;;;;;0.85;88.81;96348.21;107480;1270;35960;-74
2022/01/28 09:26:04;;;;;;;3.80;1.70;;;;;;;0.85;88.50;96351.23;107393;1270;40339;-75
2022/01/28 09:28:35;;;;;;;3.70;1.60;;;;;;;0.86;88.80;96352.68;107151;1270;36851;-75
2022/01/28 09:31:07;;;;;;;6.00;2.10;;;;;;;0.88;88.63;96322.35;107334;1270;46656;-74
2022/01/28 09:33:38;;;;;;;3.00;1.30;;;;;;;0.87;88.50;96345.65;107325;1271;39003;-74
2022/01/28 09:36:10;;;;;;;3.90;1.90;;;;;;;0.87;88.44;96352.39;107333;1270;34522;-73
2022/01/28 09:38:41;;;;;;;5.30;1.80;;;;;;;0.88;88.60;96337.52;107386;1270;36663;-74
2022/01/28 09:41:12;;;;;;;7.00;2.40;;;;;;;0.88;88.72;96351.30;107269;1270;52439;-73
2022/01/28 09:43:45;;;;;;;3.60;1.90;;;;;;;0.87;88.74;96345.70;107332;1271;35722;-75
2022/01/28 09:46:17;;;;;;;4.80;2.00;;;;;;;0.87;88.70;96353.69;107419;1270;36412;-75
2022/01/28 09:48:49;;;;;;;4.20;1.40;;;;;;;0.88;88.66;96348.54;107388;1270;37465;-75
2022/01/28 09:51:22;;;;;;;6.40;1.50;;;;;;;0.89;88.60;96357.59;107360;1270;40536;-74
2022/01/28 09:53:53;;;;;;;6.60;2.40;;;;;;;0.87;88.80;96332.40;107421;1270;31731;-73
2022/01/28 09:56:24;;;;;;;1.60;0.60;;;;;;;0.88;88.53;96329.61;107438;1270;35715;-74
2022/01/28 09:58:56;;;;;;;3.70;1.60;;;;;;;0.90;88.83;96359.38;107405;1270;114694;-74
2022/01/28 10:01:29;;;;;;;5.50;1.10;;;;;;;0.90;88.86;96365.44;107384;1271;33173;-74
2022/01/28 10:04:06;;;;;;;2.90;1.40;;;;;;;0.91;88.93;96365.77;107472;1270;37361;-74
2022/01/28 10:06:37;;;;;;;2.50;1.30;;;;;;;0.93;89.14;96362.48;107542;1270;37624;-74
2022/01/28 10:09:16;;;;;;;2.30;1.20;;;;;;;0.94;89.18;96359.27;107412;1270;38550;-74
2022/01/28 10:11:51;;;;;;;2.10;1.30;;;;;;;0.92;88.99;96362.63;107416;1270;34595;-76
2022/01/28 10:14:27;;;;;;;4.40;1.90;;;;;;;0.92;88.96;96371.34;107365;1270;28380;-74
2022/01/28 10:17:01;;;;;;;2.50;1.50;;;;;;;0.93;88.95;96369.64;107446;1270;50260;-74
2022/01/28 10:19:45;;;;;;;3.30;1.40;;;;;;;0.92;89.02;96377.61;107403;1270;33844;-73
2022/01/28 10:22:21;;;;;;;4.70;1.40;;;;;;;0.95;89.13;96377.97;107430;1270;46293;-73
2022/01/28 10:24:52;;;;;;;5.40;2.00;;;;;;;0.95;88.99;96378.77;107261;1270;33818;-75
2022/01/28 10:27:24;;;;;;;4.90;1.80;;;;;;;0.98;89.10;96367.36;107426;1270;39414;-73
2022/01/28 10:30:05;;;;;;;3.80;1.70;;;;;;;0.99;88.76;96372.33;107388;1270;43461;-74
2022/01/28 10:32:35;;;;;;;1.90;0.80;;;;;;;0.97;88.82;96374.48;107415;1270;38450;-73
2022/01/28 10:35:09;;;;;;;2.00;0.80;;;;;;;0.97;88.78;96385.40;107321;1270;42568;-74
2022/01/28 10:37:40;;;;;;;4.30;1.80;;;;;;;0.98;88.84;96385.46;107464;1270;43016;-75
2022/01/28 10:40:14;;;;;;;6.20;2.90;;;;;;;0.98;88.78;96389.08;107409;1270;54837;-74
2022/01/28 10:42:51;;;;;;;1.40;1.20;;;;;;;0.99;88.98;96394.55;107499;1268;46187;-75
2022/01/28 10:45:28;;;;;;;3.10;1.50;;;;;;;0.99;89.04;96396.30;107540;1270;43799;-75
2022/01/28 10:48:02;;;;;;;6.60;2.30;;;;;;;0.98;88.83;96388.88;107520;1269;49403;-74
2022/01/28 10:50:35;;;;;;;6.20;2.00;;;;;;;1.00;88.90;96392.48;107471;1269;42965;-74
2022/01/28 10:53:11;;;;;;;6.50;2.30;;;;;;;1.02;88.99;96403.45;107324;1270;37744;-74
2022/01/28 10:55:45;;;;;;;6.20;2.00;;;;;;;1.00;88.99;96411.44;107334;1270;43647;-75
2022/01/28 10:58:18;;;;;;;7.30;2.00;;;;;;;0.98;89.23;96400.44;107397;1270;44996;-74
2022/01/28 11:00:52;;;;;;;1.60;1.10;;;;;;;0.97;89.18;96403.67;107458;1270;36502;-73
2022/01/28 11:03:26;;;;;;;4.10;2.00;;;;;;;0.95;89.36;96386.27;107437;1270;33175;-74
2022/01/28 11:06:02;;;;;;;2.40;1.70;;;;;;;0.92;89.53;96412.57;107533;1270;34072;-75
2022/01/28 11:08:34;;;;;;;3.60;1.20;;;;;;;0.91;89.63;96407.85;107491;1270;34817;-74
2022/01/28 11:11:05;;;;;;;3.90;1.90;;;;;;;0.91;89.70;96402.84;107454;1270;38015;-73
2022/01/28 11:13:38;;;;;;;4.00;1.60;;;;;;;0.88;90.32;96408.09;107397;1270;42443;-74
2022/01/28 11:16:09;;;;;;;3.30;1.90;;;;;;;0.84;90.63;96418.14;107405;1270;36222;-74
2022/01/28 11:18:41;;;;;;;4.20;1.90;;;;;;;0.84;90.82;96421.27;107333;1271;43512;-74
2022/01/28 11:21:16;;;;;;;3.70;1.50;;;;;;;0.87;90.77;96423.58;107173;1270;66268;-74
2022/01/28 11:23:55;;;;;;;4.00;1.90;;;;;;;0.88;90.81;96425.13;107542;1270;36541;-74
2022/01/28 11:26:39;;;;;;;3.20;1.50;;;;;;;0.88;90.83;96423.48;107554;1270;39669;-74
2022/01/28 11:29:19;;;;;;;2.30;1.80;;;;;;;0.87;91.12;96426.59;107485;1270;43844;-74
2022/01/28 11:31:51;;;;;;;4.40;2.00;;;;;;;0.89;91.00;96434.73;107410;1270;47278;-77
2022/01/28 11:34:26;;;;;;;3.90;2.30;;;;;;;0.93;91.13;96434.14;107389;1271;33783;-75
2022/01/28 11:37:19;;;;;;;4.90;2.40;;;;;;;0.92;90.93;96423.90;107725;1270;39163;-76
2022/01/28 11:39:52;;;;;;;2.30;1.80;;;;;;;0.95;91.37;96429.08;107378;1271;39432;-76
2022/01/28 11:42:30;;;;;;;3.10;2.00;;;;;;;0.99;90.77;96429.71;107412;1270;36150;-75
2022/01/28 11:45:03;;;;;;;2.20;1.60;;;;;;;1.00;90.47;96421.40;107428;1270;40049;-75
2022/01/28 11:47:36;;;;;;;1.90;1.40;;;;;;;0.99;90.24;96419.56;107613;1270;36638;-75
2022/01/28 11:50:12;;;;;;;4.60;2.70;;;;;;;0.99;89.89;96437.66;105756;1270;2202216;-75
2022/01/28 11:52:45;;;;;;;4.10;2.00;;;;;;;0.98;89.61;96415.59;107493;1270;35230;-74
2022/01/28 11:55:35;;;;;;;2.30;1.60;;;;;;;0.96;89.82;96436.93;107329;1266;32582;-75
2022/01/28 11:58:11;;;;;;;2.70;1.70;;;;;;;0.96;90.09;96414.60;107212;1270;242467;-74
2022/01/28 12:00:44;;;;;;;3.60;2.40;;;;;;;0.97;89.93;96442.90;107426;1270;48062;-74
2022/01/28 12:03:20;;;;;;;4.40;2.40;;;;;;;0.98;89.76;96423.38;107674;1270;37178;-74
2022/01/28 12:05:57;;;;;;;3.70;2.20;;;;;;;1.00;89.37;96445.17;107473;1269;34876;-74
2022/01/28 12:08:31;;;;;;;3.30;1.60;;;;;;;1.01;89.43;96432.18;107725;1270;41076;-76
2022/01/28 12:11:08;;;;;;;5.70;2.50;;;;;;;1.03;89.35;96444.60;107357;1268;42180;-73
2022/01/28 12:14:02;;;;;;;3.50;1.60;;;;;;;1.05;89.02;96425.81;107424;1270;47154;-74
2022/01/28 12:16:39;;;;;;;3.40;2.00;;;;;;;1.09;88.74;96426.31;107487;1270;30412;-73
2022/01/28 12:19:19;;;;;;;3.80;1.90;;;;;;;1.08;88.73;96430.20;107425;1270;43927;-74
2022/01/28 12:22:09;;;;;;;3.10;1.60;;;;;;;1.08;88.67;96444.98;107263;1270;32633;-74
2022/01/28 12:28:23;;;;;;;4.60;1.50;;;;;;;1.06;88.79;96444.79;107050;1270;38740;-74
2022/01/28 12:31:01;;;;;;;1.90;1.70;;;;;;;1.08;88.82;96446.17;107547;1270;38374;-74
2022/01/28 12:33:34;;;;;;;3.80;2.30;;;;;;;1.08;88.78;96432.60;107453;1270;36543;-74
2022/01/28 12:36:12;;;;;;;3.20;1.60;;;;;;;1.05;88.93;96435.94;107257;1270;34783;-74
2022/01/28 12:38:57;;;;;;;2.70;1.40;;;;;;;1.04;88.91;96431.89;107463;1270;38349;-75
2022/01/28 12:41:40;;;;;;;2.20;1.30;;;;;;;1.00;89.23;96437.85;107624;1270;34507;-75
2022/01/28 12:44:15;;;;;;;3.60;1.80;;;;;;;0.96;89.71;96460.98;107514;1270;41514;-73
2022/01/28 12:46:51;;;;;;;6.80;1.70;;;;;;;0.95;90.07;96460.20;105785;1270;1911673;-74
2022/01/28 12:49:26;;;;;;;2.10;1.40;;;;;;;0.95;89.99;96444.02;107339;1271;81281;-74
2022/01/28 12:52:00;;;;;;;4.20;1.50;;;;;;;0.96;89.93;96446.45;107514;1271;39861;-73
2022/01/28 12:54:43;;;;;;;4.40;1.70;;;;;;;0.97;89.95;96455.39;107613;1269;33576;-74